createdAt,value
2018-05-15T00:00:43.595Z,0.00
2018-05-15T00:01:43.591Z,0.00
2018-05-15T00:02:43.591Z,0.00
2018-05-15T00:03:43.583Z,0.00
2018-05-15T00:04:43.581Z,0.00
2018-05-15T00:05:43.573Z,0.00
2018-05-15T00:06:43.567Z,0.00
2018-05-15T00:07:43.564Z,0.00
2018-05-15T00:08:43.559Z,0.00
2018-05-15T00:09:43.555Z,0.00
2018-05-15T00:10:43.555Z,0.00
2018-05-15T00:11:43.543Z,0.00
2018-05-15T00:12:43.540Z,0.00
2018-05-15T00:13:43.538Z,0.00
2018-05-15T00:14:43.528Z,0.00
2018-05-15T00:15:43.524Z,0.00
2018-05-15T00:16:43.529Z,0.00
2018-05-15T00:17:43.515Z,0.00
2018-05-15T00:18:43.513Z,0.00
2018-05-15T00:19:43.507Z,0.00
2018-05-15T00:20:43.501Z,0.00
2018-05-15T00:21:43.496Z,0.00
2018-05-15T00:22:43.495Z,0.00
2018-05-15T00:23:43.490Z,0.00
2018-05-15T00:24:43.484Z,0.00
2018-05-15T00:25:43.481Z,0.00
2018-05-15T00:26:43.472Z,0.00
2018-05-15T00:27:43.467Z,0.00
2018-05-15T00:28:43.462Z,0.00
2018-05-15T00:29:43.460Z,0.00
2018-05-15T00:30:43.454Z,0.00
2018-05-15T00:31:43.449Z,0.00
2018-05-15T00:32:43.446Z,0.00
2018-05-15T00:33:43.438Z,0.00
2018-05-15T00:34:43.435Z,0.00
2018-05-15T00:35:43.427Z,0.00
2018-05-15T00:36:43.432Z,0.00
2018-05-15T00:37:43.423Z,0.00
2018-05-15T00:38:43.418Z,0.00
2018-05-15T00:39:43.408Z,0.00
2018-05-15T00:40:43.407Z,0.00
2018-05-15T00:41:43.401Z,0.00
2018-05-15T00:42:43.394Z,0.00
2018-05-15T00:43:43.391Z,0.00
2018-05-15T00:44:43.388Z,0.00
2018-05-15T00:45:43.381Z,0.00
2018-05-15T00:46:43.375Z,0.00
2018-05-15T00:47:43.374Z,0.00
2018-05-15T00:48:43.370Z,0.00
2018-05-15T00:49:43.360Z,0.00
2018-05-15T00:50:43.360Z,0.00
2018-05-15T00:51:43.353Z,0.00
2018-05-15T00:52:43.350Z,0.00
2018-05-15T00:53:43.344Z,0.00
2018-05-15T00:54:43.339Z,0.00
2018-05-15T00:55:43.331Z,0.00
2018-05-15T00:56:43.330Z,0.00
2018-05-15T00:57:43.329Z,0.00
2018-05-15T00:58:43.320Z,0.00
2018-05-15T00:59:43.312Z,0.00
2018-05-15T01:00:43.308Z,0.00
2018-05-15T01:01:43.305Z,0.00
2018-05-15T01:02:43.293Z,0.00
2018-05-15T01:03:43.290Z,0.00
2018-05-15T01:04:43.287Z,0.00
2018-05-15T01:05:43.280Z,0.00
2018-05-15T01:06:43.277Z,0.00
2018-05-15T01:07:43.273Z,0.00
2018-05-15T01:08:43.263Z,0.00
2018-05-15T01:09:43.259Z,0.00
2018-05-15T01:10:43.257Z,0.00
2018-05-15T01:11:43.248Z,0.00
2018-05-15T01:12:43.249Z,0.00
2018-05-15T01:13:43.241Z,0.00
2018-05-15T01:14:43.241Z,0.00
2018-05-15T01:15:43.229Z,0.00
2018-05-15T01:16:43.226Z,0.00
2018-05-15T01:17:43.247Z,0.00
2018-05-15T01:18:43.213Z,0.00
2018-05-15T01:19:43.209Z,0.00
2018-05-15T01:20:43.199Z,0.00
2018-05-15T01:21:43.205Z,0.00
2018-05-15T01:22:43.200Z,0.00
2018-05-15T01:23:43.189Z,0.00
2018-05-15T01:24:43.185Z,0.00
2018-05-15T01:25:43.177Z,0.00
2018-05-15T01:26:43.175Z,0.00
2018-05-15T01:27:43.170Z,0.00
2018-05-15T01:28:43.164Z,0.00
2018-05-15T01:29:43.158Z,0.00
2018-05-15T01:30:43.149Z,0.00
2018-05-15T01:31:43.151Z,0.00
2018-05-15T01:32:43.140Z,0.00
2018-05-15T01:33:43.137Z,0.00
2018-05-15T01:34:43.137Z,0.00
2018-05-15T01:35:43.128Z,0.00
2018-05-15T01:36:43.117Z,0.00
2018-05-15T01:37:43.115Z,0.00
2018-05-15T01:38:43.109Z,0.00
2018-05-15T01:39:43.105Z,0.00
2018-05-15T01:40:43.099Z,0.00
2018-05-15T01:41:43.091Z,0.00
2018-05-15T01:42:43.090Z,0.00
2018-05-15T01:43:43.081Z,0.00
2018-05-15T01:44:43.077Z,0.00
2018-05-15T01:45:43.073Z,0.00
2018-05-15T01:46:43.073Z,0.00
2018-05-15T01:47:43.064Z,0.00
2018-05-15T01:48:43.063Z,0.00
2018-05-15T01:49:43.051Z,0.00
2018-05-15T01:50:43.124Z,0.00
2018-05-15T01:51:43.105Z,0.00
2018-05-15T01:52:43.038Z,0.00
2018-05-15T01:53:43.055Z,0.00
2018-05-15T01:54:43.025Z,0.00
2018-05-15T01:55:43.032Z,0.00
2018-05-15T01:56:43.019Z,0.00
2018-05-15T01:57:43.008Z,0.00
2018-05-15T01:58:43.008Z,0.00
2018-05-15T01:59:42.995Z,0.00
2018-05-15T02:00:42.993Z,0.00
2018-05-15T02:01:42.989Z,0.00
2018-05-15T02:02:42.981Z,0.00
2018-05-15T02:03:42.975Z,0.00
2018-05-15T02:04:42.975Z,0.00
2018-05-15T02:05:42.962Z,0.00
2018-05-15T02:06:42.960Z,0.00
2018-05-15T02:07:42.953Z,0.00
2018-05-15T02:08:42.950Z,0.00
2018-05-15T02:09:42.945Z,0.00
2018-05-15T02:10:42.948Z,0.00
2018-05-15T02:11:42.931Z,0.00
2018-05-15T02:12:42.926Z,0.00
2018-05-15T02:13:42.931Z,0.00
2018-05-15T02:14:42.917Z,0.00
2018-05-15T02:15:42.909Z,0.00
2018-05-15T02:16:42.901Z,0.00
2018-05-15T02:17:42.899Z,0.00
2018-05-15T02:18:42.892Z,0.00
2018-05-15T02:19:42.886Z,0.00
2018-05-15T02:20:42.880Z,0.00
2018-05-15T02:21:42.882Z,0.00
2018-05-15T02:22:42.874Z,0.00
2018-05-15T02:23:42.866Z,0.00
2018-05-15T02:24:42.860Z,0.00
2018-05-15T02:25:42.852Z,0.00
2018-05-15T02:26:42.848Z,0.00
2018-05-15T02:27:42.845Z,0.00
2018-05-15T02:28:42.841Z,0.00
2018-05-15T02:29:42.831Z,0.00
2018-05-15T02:30:42.832Z,0.00
2018-05-15T02:31:42.829Z,0.00
2018-05-15T02:32:42.815Z,0.00
2018-05-15T02:33:42.809Z,0.00
2018-05-15T02:34:42.804Z,0.00
2018-05-15T02:35:42.799Z,0.00
2018-05-15T02:36:42.795Z,0.00
2018-05-15T02:37:42.788Z,0.00
2018-05-15T02:38:42.780Z,0.00
2018-05-15T02:39:42.776Z,0.00
2018-05-15T02:40:42.769Z,0.00
2018-05-15T02:41:42.767Z,0.00
2018-05-15T02:42:42.758Z,0.00
2018-05-15T02:43:42.755Z,0.00
2018-05-15T02:44:42.746Z,0.00
2018-05-15T02:45:42.744Z,0.00
2018-05-15T02:46:42.758Z,0.00
2018-05-15T02:47:42.730Z,0.00
2018-05-15T02:48:42.721Z,0.00
2018-05-15T02:49:42.717Z,0.00
2018-05-15T02:50:42.713Z,0.00
2018-05-15T02:51:42.708Z,0.00
2018-05-15T02:52:42.703Z,0.00
2018-05-15T02:53:42.701Z,0.00
2018-05-15T02:54:42.686Z,0.00
2018-05-15T02:55:42.689Z,0.00
2018-05-15T02:56:42.683Z,0.00
2018-05-15T02:57:42.681Z,0.00
2018-05-15T02:58:42.669Z,0.00
2018-05-15T02:59:42.662Z,0.00
2018-05-15T03:00:42.653Z,0.00
2018-05-15T03:01:42.666Z,0.00
2018-05-15T03:02:42.640Z,0.00
2018-05-15T03:03:42.634Z,0.00
2018-05-15T03:04:42.634Z,0.00
2018-05-15T03:05:42.627Z,0.00
2018-05-15T03:06:42.622Z,0.00
2018-05-15T03:07:42.612Z,0.00
2018-05-15T03:08:42.608Z,0.00
2018-05-15T03:09:42.603Z,0.00
2018-05-15T03:10:42.597Z,0.00
2018-05-15T03:11:42.599Z,0.00
2018-05-15T03:12:42.586Z,0.00
2018-05-15T03:13:42.583Z,0.00
2018-05-15T03:14:42.576Z,0.00
2018-05-15T03:15:42.566Z,0.00
2018-05-15T03:16:42.560Z,0.00
2018-05-15T03:17:42.556Z,0.00
2018-05-15T03:18:42.551Z,0.00
2018-05-15T03:19:42.544Z,0.00
2018-05-15T03:20:42.541Z,0.00
2018-05-15T03:21:42.536Z,0.00
2018-05-15T03:22:42.526Z,5.63
2018-05-15T03:23:42.521Z,5.63
2018-05-15T03:24:42.516Z,5.63
2018-05-15T03:25:42.509Z,5.63
2018-05-15T03:26:42.502Z,5.63
2018-05-15T03:27:42.498Z,5.63
2018-05-15T03:28:42.496Z,5.63
2018-05-15T03:29:42.486Z,11.25
2018-05-15T03:30:42.478Z,11.25
2018-05-15T03:31:42.480Z,11.25
2018-05-15T03:32:42.466Z,11.25
2018-05-15T03:33:42.466Z,16.88
2018-05-15T03:34:42.457Z,16.88
2018-05-15T03:35:42.527Z,16.88
2018-05-15T03:36:42.444Z,16.88
2018-05-15T03:37:42.440Z,22.50
2018-05-15T03:38:42.430Z,22.50
2018-05-15T03:39:42.431Z,22.50
2018-05-15T03:40:42.427Z,28.13
2018-05-15T03:41:42.418Z,28.13
2018-05-15T03:42:42.414Z,28.13
2018-05-15T03:43:42.401Z,33.75
2018-05-15T03:44:42.397Z,33.75
2018-05-15T03:45:42.391Z,39.38
2018-05-15T03:46:42.384Z,39.38
2018-05-15T03:47:42.383Z,39.38
2018-05-15T03:48:42.376Z,45.00
2018-05-15T03:49:42.368Z,45.00
2018-05-15T03:50:42.360Z,50.63
2018-05-15T03:51:42.357Z,50.63
2018-05-15T03:52:42.351Z,56.25
2018-05-15T03:53:42.345Z,56.25
2018-05-15T03:54:42.339Z,61.88
2018-05-15T03:55:42.331Z,67.50
2018-05-15T03:56:42.329Z,67.50
2018-05-15T03:57:42.320Z,73.13
2018-05-15T03:58:42.315Z,73.13
2018-05-15T03:59:42.310Z,78.75
2018-05-15T04:00:42.300Z,78.75
2018-05-15T04:01:42.300Z,84.38
2018-05-15T04:02:42.291Z,84.38
2018-05-15T04:03:42.283Z,90.00
2018-05-15T04:04:42.277Z,95.63
2018-05-15T04:05:42.268Z,95.63
2018-05-15T04:06:42.264Z,101.25
2018-05-15T04:07:42.262Z,101.25
2018-05-15T04:08:42.335Z,106.88
2018-05-15T04:09:42.247Z,112.50
2018-05-15T04:10:42.242Z,112.50
2018-05-15T04:11:42.232Z,118.13
2018-05-15T04:12:42.248Z,123.75
2018-05-15T04:13:42.225Z,123.75
2018-05-15T04:14:42.213Z,129.38
2018-05-15T04:15:42.213Z,129.38
2018-05-15T04:16:42.207Z,135.00
2018-05-15T04:17:42.205Z,135.00
2018-05-15T04:18:42.192Z,140.63
2018-05-15T04:19:42.189Z,146.25
2018-05-15T04:20:42.184Z,146.25
2018-05-15T04:21:42.174Z,146.25
2018-05-15T04:22:42.167Z,151.88
2018-05-15T04:23:42.165Z,151.88
2018-05-15T04:24:42.159Z,157.50
2018-05-15T04:25:42.148Z,157.50
2018-05-15T04:26:42.144Z,163.13
2018-05-15T04:27:42.138Z,168.75
2018-05-15T04:28:42.132Z,168.75
2018-05-15T04:29:42.134Z,174.38
2018-05-15T04:30:42.121Z,180.00
2018-05-15T04:31:42.117Z,180.00
2018-05-15T04:32:42.111Z,185.63
2018-05-15T04:33:42.100Z,191.25
2018-05-15T04:34:42.097Z,196.88
2018-05-15T04:35:42.088Z,196.88
2018-05-15T04:36:42.097Z,202.50
2018-05-15T04:37:42.076Z,208.13
2018-05-15T04:38:42.079Z,213.75
2018-05-15T04:39:42.065Z,213.75
2018-05-15T04:40:42.063Z,219.38
2018-05-15T04:41:42.052Z,225.00
2018-05-15T04:42:42.049Z,225.00
2018-05-15T04:43:42.081Z,230.63
2018-05-15T04:44:42.040Z,236.25
2018-05-15T04:45:42.033Z,241.88
2018-05-15T04:46:42.026Z,241.88
2018-05-15T04:47:42.020Z,247.50
2018-05-15T04:48:42.013Z,253.13
2018-05-15T04:49:42.022Z,270.00
2018-05-15T04:50:42.001Z,421.88
2018-05-15T04:51:41.998Z,607.50
2018-05-15T04:52:41.992Z,658.13
2018-05-15T04:53:41.986Z,663.75
2018-05-15T04:54:41.975Z,686.25
2018-05-15T04:55:42.059Z,736.88
2018-05-15T04:56:41.968Z,793.13
2018-05-15T04:57:41.965Z,877.50
2018-05-15T04:58:41.957Z,900.00
2018-05-15T04:59:41.948Z,888.75
2018-05-15T05:00:41.949Z,871.88
2018-05-15T05:01:41.935Z,883.13
2018-05-15T05:02:41.932Z,933.75
2018-05-15T05:03:41.930Z,939.38
2018-05-15T05:04:41.923Z,967.50
2018-05-15T05:05:41.917Z,1046.25
2018-05-15T05:06:41.913Z,1063.13
2018-05-15T05:07:41.906Z,1125.00
2018-05-15T05:08:41.900Z,1147.50
2018-05-15T05:09:41.896Z,1147.50
2018-05-15T05:10:41.892Z,1141.88
2018-05-15T05:11:41.900Z,1181.25
2018-05-15T05:12:41.895Z,1231.88
2018-05-15T05:13:41.877Z,1310.63
2018-05-15T05:14:41.868Z,1361.25
2018-05-15T05:15:41.865Z,1327.50
2018-05-15T05:16:41.863Z,1282.50
2018-05-15T05:17:41.860Z,1299.38
2018-05-15T05:18:41.856Z,1350.00
2018-05-15T05:19:41.854Z,1395.00
2018-05-15T05:20:41.851Z,1395.00
2018-05-15T05:21:41.840Z,1434.38
2018-05-15T05:22:41.837Z,1524.38
2018-05-15T05:23:41.839Z,1524.38
2018-05-15T05:24:41.831Z,1569.38
2018-05-15T05:25:41.828Z,1636.88
2018-05-15T05:26:41.825Z,1698.75
2018-05-15T05:27:41.821Z,1670.63
2018-05-15T05:28:41.814Z,1580.63
2018-05-15T05:29:41.814Z,1569.38
2018-05-15T05:30:41.809Z,1693.13
2018-05-15T05:31:41.806Z,1698.75
2018-05-15T05:32:41.811Z,1563.75
2018-05-15T05:33:41.802Z,1636.88
2018-05-15T05:34:41.798Z,1704.38
2018-05-15T05:35:41.798Z,1698.75
2018-05-15T05:36:41.796Z,1800.00
2018-05-15T05:37:41.791Z,1873.13
2018-05-15T05:38:41.784Z,2002.50
2018-05-15T05:39:41.785Z,2058.75
2018-05-15T05:40:41.783Z,2047.50
2018-05-15T05:41:41.781Z,2098.13
2018-05-15T05:42:41.778Z,2182.50
2018-05-15T05:43:41.779Z,2205.00
2018-05-15T05:44:41.770Z,2199.38
2018-05-15T05:45:41.774Z,2109.38
2018-05-15T05:46:41.771Z,2165.63
2018-05-15T05:47:41.768Z,2317.50
2018-05-15T05:48:41.766Z,2334.38
2018-05-15T05:49:41.764Z,2446.88
2018-05-15T05:50:41.760Z,2536.88
2018-05-15T05:51:41.760Z,2469.38
2018-05-15T05:52:41.759Z,2469.38
2018-05-15T05:53:41.766Z,2621.25
2018-05-15T05:54:41.758Z,2632.50
2018-05-15T05:55:41.758Z,2570.63
2018-05-15T05:56:41.751Z,2621.25
2018-05-15T05:57:41.748Z,2750.63
2018-05-15T05:58:41.746Z,2767.50
2018-05-15T05:59:41.911Z,2761.88
2018-05-15T06:00:41.749Z,2896.88
2018-05-15T06:01:41.754Z,2941.88
2018-05-15T06:02:41.746Z,2936.25
2018-05-15T06:03:41.747Z,2975.63
2018-05-15T06:04:41.745Z,3003.75
2018-05-15T06:05:41.752Z,2902.50
2018-05-15T06:06:41.743Z,2784.38
2018-05-15T06:07:41.742Z,2908.13
2018-05-15T06:08:41.769Z,3031.88
2018-05-15T06:09:41.741Z,2975.63
2018-05-15T06:10:41.740Z,2947.50
2018-05-15T06:11:41.740Z,3043.13
2018-05-15T06:12:41.743Z,2683.13
2018-05-15T06:13:41.741Z,2435.63
2018-05-15T06:14:41.739Z,1018.13
2018-05-15T06:15:41.742Z,770.63
2018-05-15T06:16:41.740Z,708.75
2018-05-15T06:17:41.739Z,618.75
2018-05-15T06:18:41.739Z,641.25
2018-05-15T06:19:41.736Z,877.50
2018-05-15T06:20:41.804Z,1091.25
2018-05-15T06:21:41.785Z,1035.00
2018-05-15T06:22:41.745Z,1085.63
2018-05-15T06:23:41.740Z,1125.00
2018-05-15T06:24:41.739Z,1119.38
2018-05-15T06:25:41.742Z,1085.63
2018-05-15T06:26:41.737Z,1080.00
2018-05-15T06:27:41.737Z,1125.00
2018-05-15T06:28:41.737Z,1333.13
2018-05-15T06:29:41.741Z,2075.63
2018-05-15T06:30:41.740Z,2767.50
2018-05-15T06:31:41.736Z,2790.00
2018-05-15T06:32:41.737Z,2801.25
2018-05-15T06:33:41.763Z,3071.25
2018-05-15T06:34:41.777Z,3448.13
2018-05-15T06:35:41.777Z,3560.63
2018-05-15T06:36:41.738Z,3639.38
2018-05-15T06:37:41.737Z,3701.25
2018-05-15T06:38:41.738Z,3605.63
2018-05-15T06:39:41.739Z,3836.25
2018-05-15T06:40:41.739Z,4016.25
2018-05-15T06:41:41.748Z,3690.00
2018-05-15T06:42:41.742Z,3746.25
2018-05-15T06:43:41.744Z,3735.00
2018-05-15T06:44:41.816Z,3543.75
2018-05-15T06:45:41.744Z,3341.25
2018-05-15T06:46:41.744Z,3459.38
2018-05-15T06:47:41.746Z,3796.88
2018-05-15T06:48:41.752Z,4258.13
2018-05-15T06:49:41.751Z,4488.75
2018-05-15T06:50:41.753Z,4455.00
2018-05-15T06:51:41.749Z,4218.75
2018-05-15T06:52:41.753Z,4151.25
2018-05-15T06:53:41.754Z,4460.63
2018-05-15T06:54:41.757Z,4494.38
2018-05-15T06:55:41.762Z,4353.75
2018-05-15T06:56:41.759Z,4590.00
2018-05-15T06:57:41.763Z,4635.00
2018-05-15T06:58:41.767Z,4516.88
2018-05-15T06:59:41.775Z,4567.50
2018-05-15T07:00:41.773Z,4550.63
2018-05-15T07:01:41.805Z,4387.50
2018-05-15T07:02:41.782Z,4381.88
2018-05-15T07:03:41.780Z,4438.13
2018-05-15T07:04:41.784Z,4550.63
2018-05-15T07:05:41.782Z,4680.00
2018-05-15T07:06:41.888Z,4505.63
2018-05-15T07:07:41.798Z,4241.25
2018-05-15T07:08:41.801Z,4314.38
2018-05-15T07:09:41.800Z,4741.88
2018-05-15T07:10:41.804Z,4820.63
2018-05-15T07:11:41.811Z,4764.38
2018-05-15T07:12:41.809Z,4826.25
2018-05-15T07:13:41.813Z,4843.13
2018-05-15T07:14:41.818Z,4781.25
2018-05-15T07:15:41.827Z,4837.50
2018-05-15T07:16:41.826Z,5006.25
2018-05-15T07:17:41.830Z,5135.63
2018-05-15T07:18:41.833Z,5135.63
2018-05-15T07:19:41.834Z,5011.88
2018-05-15T07:20:41.839Z,5107.50
2018-05-15T07:21:41.847Z,5321.25
2018-05-15T07:22:41.847Z,5360.63
2018-05-15T07:23:41.852Z,5495.63
2018-05-15T07:24:41.858Z,5540.63
2018-05-15T07:25:41.861Z,5529.38
2018-05-15T07:26:41.863Z,5580.00
2018-05-15T07:27:41.873Z,5608.13
2018-05-15T07:28:41.879Z,5433.75
2018-05-15T07:29:41.882Z,5231.25
2018-05-15T07:30:41.888Z,5546.25
2018-05-15T07:31:41.891Z,5726.25
2018-05-15T07:32:41.893Z,5625.00
2018-05-15T07:33:41.922Z,5715.00
2018-05-15T07:34:41.917Z,5760.00
2018-05-15T07:35:45.901Z,5917.50
2018-05-15T07:36:41.917Z,6018.75
2018-05-15T07:37:41.918Z,6001.88
2018-05-15T07:38:41.921Z,5968.13
2018-05-15T07:39:41.925Z,5968.13
2018-05-15T07:40:41.931Z,5911.88
2018-05-15T07:41:41.938Z,5529.38
2018-05-15T07:42:41.947Z,5596.88
2018-05-15T07:43:41.956Z,6170.63
2018-05-15T07:44:41.960Z,6052.50
2018-05-15T07:45:41.960Z,5962.50
2018-05-15T07:46:41.966Z,6125.63
2018-05-15T07:47:41.967Z,6046.88
2018-05-15T07:48:41.977Z,5850.00
2018-05-15T07:49:41.979Z,6058.13
2018-05-15T07:50:41.993Z,6249.38
2018-05-15T07:51:41.988Z,6052.50
2018-05-15T07:52:42.085Z,6120.00
2018-05-15T07:53:42.079Z,6091.88
2018-05-15T07:54:42.006Z,5816.25
2018-05-15T07:55:42.604Z,5956.88
2018-05-15T07:56:42.026Z,5940.00
2018-05-15T07:57:42.030Z,5760.00
2018-05-15T07:58:42.034Z,5906.25
2018-05-15T07:59:42.041Z,5788.13
2018-05-15T08:00:42.047Z,5591.25
2018-05-15T08:01:42.050Z,5591.25
2018-05-15T08:02:42.057Z,5754.38
2018-05-15T08:03:42.065Z,5973.75
2018-05-15T08:04:42.111Z,6283.13
2018-05-15T08:05:42.095Z,6176.25
2018-05-15T08:06:42.085Z,5816.25
2018-05-15T08:07:42.090Z,5940.00
2018-05-15T08:08:42.183Z,6356.25
2018-05-15T08:09:42.109Z,6750.00
2018-05-15T08:10:42.115Z,6924.38
2018-05-15T08:11:42.122Z,6660.00
2018-05-15T08:12:42.124Z,6513.75
2018-05-15T08:13:42.130Z,6603.75
2018-05-15T08:14:42.143Z,6378.75
2018-05-15T08:15:42.178Z,6181.88
2018-05-15T08:16:42.202Z,6603.75
2018-05-15T08:17:42.181Z,6851.25
2018-05-15T08:18:42.174Z,6755.63
2018-05-15T08:19:42.185Z,6890.63
2018-05-15T08:20:43.156Z,6710.63
2018-05-15T08:21:42.184Z,6609.38
2018-05-15T08:22:43.129Z,6564.38
2018-05-15T08:23:42.203Z,6333.75
2018-05-15T08:24:42.205Z,6148.13
2018-05-15T08:25:42.219Z,6480.00
2018-05-15T08:26:42.223Z,6249.38
2018-05-15T08:27:42.253Z,6384.38
2018-05-15T08:28:42.252Z,6210.00
2018-05-15T08:29:42.287Z,6243.75
2018-05-15T08:30:42.390Z,6519.38
2018-05-15T08:31:42.257Z,6558.75
2018-05-15T08:32:42.265Z,6322.50
2018-05-15T08:33:42.271Z,6378.75
2018-05-15T08:34:42.280Z,6480.00
2018-05-15T08:35:42.287Z,6153.75
2018-05-15T08:36:42.297Z,6255.00
2018-05-15T08:37:42.315Z,6114.38
2018-05-15T08:38:42.307Z,6103.13
2018-05-15T08:39:42.315Z,6356.25
2018-05-15T08:40:42.321Z,6676.88
2018-05-15T08:41:42.329Z,6688.13
2018-05-15T08:42:42.334Z,6474.38
2018-05-15T08:43:42.346Z,6339.38
2018-05-15T08:44:42.354Z,6215.63
2018-05-15T08:45:42.359Z,6300.00
2018-05-15T08:46:42.364Z,6046.88
2018-05-15T08:47:42.371Z,6097.50
2018-05-15T08:48:42.378Z,6181.88
2018-05-15T08:49:42.387Z,6204.38
2018-05-15T08:50:42.401Z,5467.50
2018-05-15T08:51:42.405Z,5619.38
2018-05-15T08:52:42.453Z,6170.63
2018-05-15T08:53:42.418Z,6502.50
2018-05-15T08:54:42.423Z,6316.88
2018-05-15T08:55:42.432Z,5850.00
2018-05-15T08:56:42.441Z,6114.38
2018-05-15T08:57:42.453Z,5917.50
2018-05-15T08:58:42.460Z,6041.25
2018-05-15T08:59:42.467Z,6159.38
2018-05-15T09:00:42.471Z,6238.13
2018-05-15T09:01:42.479Z,6058.13
2018-05-15T09:02:42.486Z,6091.88
2018-05-15T09:03:42.501Z,6513.75
2018-05-15T09:04:42.505Z,6688.13
2018-05-15T09:05:42.512Z,6592.50
2018-05-15T09:06:42.520Z,6412.50
2018-05-15T09:07:42.524Z,6283.13
2018-05-15T09:08:42.533Z,6513.75
2018-05-15T09:09:42.540Z,6480.00
2018-05-15T09:10:42.553Z,6806.25
2018-05-15T09:11:42.565Z,6699.38
2018-05-15T09:12:42.567Z,6322.50
2018-05-15T09:13:42.576Z,6620.63
2018-05-15T09:14:42.580Z,6665.63
2018-05-15T09:15:42.588Z,6699.38
2018-05-15T09:16:42.601Z,6744.38
2018-05-15T09:17:42.606Z,6564.38
2018-05-15T09:18:42.614Z,6474.38
2018-05-15T09:19:42.622Z,6305.63
2018-05-15T09:20:42.632Z,6474.38
2018-05-15T09:21:42.635Z,6536.25
2018-05-15T09:22:42.645Z,6457.50
2018-05-15T09:23:42.650Z,6705.00
2018-05-15T09:24:42.663Z,6181.88
2018-05-15T09:25:42.668Z,6277.50
2018-05-15T09:26:42.681Z,6541.88
2018-05-15T09:27:42.686Z,6845.63
2018-05-15T09:28:42.697Z,6744.38
2018-05-15T09:29:42.702Z,6643.13
2018-05-15T09:30:42.709Z,6665.63
2018-05-15T09:31:42.726Z,6541.88
2018-05-15T09:32:42.730Z,6395.63
2018-05-15T09:33:42.736Z,6406.88
2018-05-15T09:34:42.744Z,6496.88
2018-05-15T09:35:42.752Z,6496.88
2018-05-15T09:36:42.761Z,6148.13
2018-05-15T09:37:42.769Z,5085.00
2018-05-15T09:38:42.776Z,6086.25
2018-05-15T09:39:42.783Z,5805.00
2018-05-15T09:40:44.677Z,4758.75
2018-05-15T09:41:42.800Z,4190.63
2018-05-15T09:42:42.808Z,4398.75
2018-05-15T09:43:42.826Z,5501.25
2018-05-15T09:44:42.828Z,5743.13
2018-05-15T09:45:42.832Z,5990.63
2018-05-15T09:46:42.844Z,5686.88
2018-05-15T09:47:42.866Z,5422.50
2018-05-15T09:48:42.855Z,4882.50
2018-05-15T09:49:42.862Z,4843.13
2018-05-15T09:50:42.904Z,5326.88
2018-05-15T09:51:42.882Z,5568.75
2018-05-15T09:52:42.888Z,5754.38
2018-05-15T09:53:42.904Z,5619.38
2018-05-15T09:54:42.905Z,5653.13
2018-05-15T09:55:42.919Z,5371.88
2018-05-15T09:56:42.928Z,6080.63
2018-05-15T09:57:42.951Z,5866.88
2018-05-15T09:58:42.938Z,5771.25
2018-05-15T09:59:42.945Z,5585.63
2018-05-15T10:00:42.949Z,5574.38
2018-05-15T10:01:42.958Z,6108.75
2018-05-15T10:02:42.966Z,5940.00
2018-05-15T10:03:43.001Z,5821.88
2018-05-15T10:04:42.988Z,5591.25
2018-05-15T10:05:42.994Z,5726.25
2018-05-15T10:06:43.011Z,5996.25
2018-05-15T10:07:43.066Z,6361.88
2018-05-15T10:08:43.018Z,6361.88
2018-05-15T10:09:43.029Z,6429.38
2018-05-15T10:10:43.039Z,6468.75
2018-05-15T10:11:43.049Z,6277.50
2018-05-15T10:12:43.054Z,6418.13
2018-05-15T10:13:43.153Z,6671.25
2018-05-15T10:14:43.067Z,6440.63
2018-05-15T10:15:43.076Z,6418.13
2018-05-15T10:16:43.086Z,6592.50
2018-05-15T10:17:43.098Z,6525.00
2018-05-15T10:18:43.109Z,6114.38
2018-05-15T10:19:43.117Z,6120.00
2018-05-15T10:20:43.127Z,5951.25
2018-05-15T10:21:43.137Z,5765.63
2018-05-15T10:22:43.141Z,6181.88
2018-05-15T10:23:43.151Z,5731.88
2018-05-15T10:24:43.164Z,6204.38
2018-05-15T10:25:43.179Z,6136.88
2018-05-15T10:26:43.181Z,5850.00
2018-05-15T10:27:43.187Z,5968.13
2018-05-15T10:28:43.197Z,5956.88
2018-05-15T10:29:43.204Z,5748.75
2018-05-15T10:30:43.214Z,5709.38
2018-05-15T10:31:43.240Z,5956.88
2018-05-15T10:32:43.235Z,5506.88
2018-05-15T10:33:43.247Z,5748.75
2018-05-15T10:34:43.249Z,4916.25
2018-05-15T10:35:43.258Z,5805.00
2018-05-15T10:36:43.269Z,5287.50
2018-05-15T10:37:43.282Z,5816.25
2018-05-15T10:38:43.310Z,5715.00
2018-05-15T10:39:43.300Z,5265.00
2018-05-15T10:40:43.305Z,5501.25
2018-05-15T10:41:43.315Z,5338.13
2018-05-15T10:42:43.340Z,6075.00
2018-05-15T10:43:43.334Z,6260.63
2018-05-15T10:44:43.350Z,6210.00
2018-05-15T10:45:43.355Z,6378.75
2018-05-15T10:46:43.364Z,6283.13
2018-05-15T10:47:43.376Z,6159.38
2018-05-15T10:48:43.380Z,6221.25
2018-05-15T10:49:43.387Z,6063.75
2018-05-15T10:50:43.469Z,5889.38
2018-05-15T10:51:43.422Z,5748.75
2018-05-15T10:52:43.431Z,5551.88
2018-05-15T10:53:43.435Z,5698.13
2018-05-15T10:54:43.442Z,5737.50
2018-05-15T10:55:43.445Z,5428.13
2018-05-15T10:56:43.465Z,5495.63
2018-05-15T10:57:43.465Z,5287.50
2018-05-15T10:58:43.477Z,5445.00
2018-05-15T10:59:43.489Z,5580.00
2018-05-15T11:00:43.499Z,5405.63
2018-05-15T11:01:43.508Z,5180.63
2018-05-15T11:02:43.513Z,5135.63
2018-05-15T11:03:43.526Z,4876.88
2018-05-15T11:04:43.531Z,4595.63
2018-05-15T11:05:43.540Z,5141.25
2018-05-15T11:06:43.550Z,5208.75
2018-05-15T11:07:43.557Z,4477.50
2018-05-15T11:08:43.565Z,4336.88
2018-05-15T11:09:43.572Z,5197.50
2018-05-15T11:10:43.580Z,5793.75
2018-05-15T11:11:43.593Z,5821.88
2018-05-15T11:12:43.617Z,5580.00
2018-05-15T11:13:43.607Z,5506.88
2018-05-15T11:14:43.616Z,5338.13
2018-05-15T11:15:43.622Z,4685.63
2018-05-15T11:16:43.634Z,4696.88
2018-05-15T11:17:43.641Z,4736.25
2018-05-15T11:18:43.680Z,3273.75
2018-05-15T11:19:43.676Z,4443.75
2018-05-15T11:20:43.669Z,4145.63
2018-05-15T11:21:43.673Z,1350.00
2018-05-15T11:22:43.681Z,2930.63
2018-05-15T11:23:43.692Z,5473.13
2018-05-15T11:24:43.708Z,5473.13
2018-05-15T11:25:43.710Z,5518.13
2018-05-15T11:26:43.717Z,5551.88
2018-05-15T11:27:43.725Z,5731.88
2018-05-15T11:28:43.732Z,5675.63
2018-05-15T11:29:43.740Z,5585.63
2018-05-15T11:30:43.749Z,5343.75
2018-05-15T11:31:43.759Z,5310.00
2018-05-15T11:32:43.767Z,5135.63
2018-05-15T11:33:43.775Z,5259.38
2018-05-15T11:34:43.778Z,5270.63
2018-05-15T11:35:43.840Z,5208.75
2018-05-15T11:36:43.795Z,5388.75
2018-05-15T11:37:43.802Z,5512.50
2018-05-15T11:38:43.813Z,5326.88
2018-05-15T11:39:43.825Z,5422.50
2018-05-15T11:40:43.829Z,5625.00
2018-05-15T11:41:43.908Z,5461.88
2018-05-15T11:42:43.844Z,5315.63
2018-05-15T11:43:43.859Z,5343.75
2018-05-15T11:44:43.866Z,5360.63
2018-05-15T11:45:43.876Z,5214.38
2018-05-15T11:46:43.883Z,5056.88
2018-05-15T11:47:44.125Z,4938.75
2018-05-15T11:48:44.273Z,4860.00
2018-05-15T11:49:44.622Z,4899.38
2018-05-15T11:50:45.011Z,4815.00
2018-05-15T11:51:44.653Z,4831.88
2018-05-15T11:52:44.313Z,4696.88
2018-05-15T11:53:43.944Z,5045.63
2018-05-15T11:54:43.949Z,5113.13
2018-05-15T11:55:43.962Z,4978.13
2018-05-15T11:56:43.971Z,4753.13
2018-05-15T11:57:44.006Z,4342.50
2018-05-15T11:58:43.990Z,4882.50
2018-05-15T11:59:44.020Z,5006.25
2018-05-15T12:00:44.009Z,5040.00
2018-05-15T12:01:44.017Z,4843.13
2018-05-15T12:02:44.082Z,4854.38
2018-05-15T12:03:44.114Z,4775.63
2018-05-15T12:04:44.043Z,4511.25
2018-05-15T12:05:44.052Z,4455.00
2018-05-15T12:06:44.060Z,4623.75
2018-05-15T12:07:44.146Z,4696.88
2018-05-15T12:08:44.075Z,4511.25
2018-05-15T12:09:44.086Z,4365.00
2018-05-15T12:10:44.189Z,4505.63
2018-05-15T12:11:44.119Z,4483.13
2018-05-15T12:12:44.116Z,4426.88
2018-05-15T12:13:44.134Z,4162.50
2018-05-15T12:14:44.131Z,4404.38
2018-05-15T12:15:44.138Z,4432.50
2018-05-15T12:16:44.148Z,4398.75
2018-05-15T12:17:44.158Z,4421.25
2018-05-15T12:18:44.168Z,4393.13
2018-05-15T12:19:44.177Z,4455.00
2018-05-15T12:20:44.188Z,4505.63
2018-05-15T12:21:44.189Z,4618.13
2018-05-15T12:22:44.199Z,4483.13
2018-05-15T12:23:44.208Z,4359.38
2018-05-15T12:24:44.218Z,4320.00
2018-05-15T12:25:44.229Z,4426.88
2018-05-15T12:26:44.237Z,4286.25
2018-05-15T12:27:44.247Z,4291.88
2018-05-15T12:28:44.255Z,4381.88